Time;durP1;ratioP1;P1;durP2;ratioP2;P2;SDS_P1;SDS_P2;PMS_P1;PMS_P2;Temp;Humidity;BMP_temperature;BMP_pressure;BME280_temperature;BME280_humidity;BME280_pressure;Samples;Min_cycle;Max_cycle;Signal;HPM_P1;HPM_P2
2022/09/27 00:00:36;;;;;;;6.97;0.98;;;9.30;99.90;;;;;;5069856;28;20048;-66
2022/09/27 00:03:01;;;;;;;6.05;1.50;;;9.40;99.90;;;;;;5074169;28;20058;-66
2022/09/27 00:05:28;;;;;;;8.43;1.63;;;9.50;99.90;;;;;;5071163;28;20505;-66
2022/09/27 00:07:54;;;;;;;8.73;1.10;;;9.40;99.90;;;;;;5075946;28;20044;-66
2022/09/27 00:10:19;;;;;;;6.25;1.20;;;9.20;99.90;;;;;;5068499;28;20047;-67
2022/09/27 00:12:45;;;;;;;12.50;1.33;;;9.40;99.90;;;;;;5071981;28;20063;-66
2022/09/27 00:15:11;;;;;;;9.75;1.67;;;9.30;99.90;;;;;;5072298;28;20032;-66
2022/09/27 00:17:37;;;;;;;3.38;0.90;;;9.20;99.90;;;;;;5082470;28;20146;-66
2022/09/27 00:20:06;;;;;;;11.05;1.33;;;9.40;99.90;;;;;;5084114;28;20086;-66
2022/09/27 00:22:31;;;;;;;7.32;1.00;;;9.10;99.90;;;;;;5074630;28;20374;-66
2022/09/27 00:24:57;;;;;;;7.72;1.00;;;9.20;99.90;;;;;;5085301;28;20036;-67
2022/09/27 00:27:24;;;;;;;4.22;0.70;;;9.30;99.90;;;;;;5083677;28;20422;-66
2022/09/27 00:29:51;;;;;;;4.72;0.90;;;9.00;99.90;;;;;;5077842;28;20549;-66
2022/09/27 00:32:17;;;;;;;6.28;1.05;;;8.90;99.90;;;;;;5088154;28;20475;-66
2022/09/27 00:34:42;;;;;;;6.63;1.13;;;9.20;99.90;;;;;;5083183;28;20036;-66
2022/09/27 00:37:10;;;;;;;4.78;0.98;;;8.90;99.90;;;;;;5074964;28;20530;-66
2022/09/27 00:39:37;;;;;;;8.65;1.17;;;9.00;99.90;;;;;;5089062;28;20040;-66
2022/09/27 00:42:03;;;;;;;9.25;1.25;;;8.90;99.90;;;;;;5085551;28;20036;-66
2022/09/27 00:44:32;;;;;;;4.57;0.82;;;9.20;99.90;;;;;;5079317;28;20720;-66
2022/09/27 00:47:27;;;;;;;7.72;1.05;;;8.80;99.90;;;;;;5087940;28;20036;-67
2022/09/27 00:50:04;;;;;;;7.20;0.90;;;8.90;99.90;;;;;;5067315;28;20519;-66
2022/09/27 00:52:58;;;;;;;4.10;0.93;;;9.20;99.90;;;;;;5080292;28;20072;-66
2022/09/27 00:55:29;;;;;;;8.25;1.02;;;9.20;99.90;;;;;;5083481;28;20040;-67
2022/09/27 00:57:55;;;;;;;5.93;1.08;;;9.00;99.90;;;;;;5079811;28;20399;-66
2022/09/27 01:00:21;;;;;;;7.85;1.08;;;9.20;99.90;;;;;;5083992;28;20109;-66
2022/09/27 01:02:50;;;;;;;7.43;1.00;;;9.00;99.90;;;;;;5082318;28;20029;-66
2022/09/27 01:05:19;;;;;;;2.28;0.77;;;9.00;99.90;;;;;;5081867;28;20131;-66
2022/09/27 01:07:45;;;;;;;3.30;0.77;;;9.00;99.90;;;;;;5083637;28;20495;-66
2022/09/27 01:10:12;;;;;;;5.10;0.80;;;9.00;99.90;;;;;;5082799;28;20075;-66
2022/09/27 01:13:03;;;;;;;10.55;0.98;;;9.10;99.90;;;;;;5088125;28;20090;-66
2022/09/27 01:15:51;;;;;;;4.03;0.70;;;9.00;99.90;;;;;;5087797;28;20513;-66
2022/09/27 01:18:34;;;;;;;9.18;0.95;;;9.10;99.90;;;;;;5087501;28;20036;-66
2022/09/27 01:21:09;;;;;;;6.47;0.90;;;9.00;99.90;;;;;;5085601;28;20459;-66
2022/09/27 01:23:47;;;;;;;8.18;1.20;;;9.30;99.90;;;;;;5074485;28;20392;-66
2022/09/27 01:26:22;;;;;;;7.88;1.13;;;9.30;99.90;;;;;;5078585;28;20032;-66
2022/09/27 01:29:18;;;;;;;4.88;0.70;;;9.00;99.90;;;;;;5088316;28;20364;-66
2022/09/27 01:31:53;;;;;;;2.70;0.80;;;9.00;99.90;;;;;;5086780;28;20051;-66
2022/09/27 01:34:25;;;;;;;3.22;0.70;;;9.00;99.90;;;;;;5083939;28;20103;-65
2022/09/27 01:37:13;;;;;;;3.33;0.63;;;8.90;99.90;;;;;;5087399;28;20059;-66
2022/09/27 01:39:58;;;;;;;12.80;1.00;;;9.10;99.90;;;;;;5079155;28;20040;-66
2022/09/27 01:42:56;;;;;;;6.63;1.00;;;9.10;99.90;;;;;;5082445;28;20044;-65
2022/09/27 01:45:35;;;;;;;5.30;0.90;;;8.90;99.90;;;;;;5081246;28;20063;-66
2022/09/27 01:48:08;;;;;;;3.25;1.00;;;9.00;99.90;;;;;;5072874;28;20048;-66
2022/09/27 01:50:41;;;;;;;7.35;0.90;;;8.90;99.90;;;;;;5079757;28;22947;-66
2022/09/27 01:53:15;;;;;;;5.47;1.27;;;8.90;99.90;;;;;;5079037;28;20036;-66
2022/09/27 01:55:43;;;;;;;1.23;0.50;;;8.90;99.90;;;;;;5083697;28;20040;-66
2022/09/27 01:58:24;;;;;;;4.43;0.88;;;8.90;99.90;;;;;;5081231;28;20399;-67
2022/09/27 02:00:53;;;;;;;4.13;0.80;;;9.00;99.90;;;;;;5081646;28;20038;-67
2022/09/27 02:03:28;;;;;;;3.47;0.80;;;8.80;99.90;;;;;;5087206;28;20032;-66
2022/09/27 02:06:02;;;;;;;6.13;0.90;;;9.00;99.90;;;;;;5087109;28;20036;-67
2022/09/27 02:08:45;;;;;;;4.60;1.08;;;9.10;99.90;;;;;;5085859;28;20035;-67
2022/09/27 02:11:13;;;;;;;5.43;0.93;;;8.90;99.90;;;;;;5085225;28;20079;-67
2022/09/27 02:13:57;;;;;;;6.88;0.82;;;9.20;99.90;;;;;;5077416;28;20215;-66
2022/09/27 02:16:46;;;;;;;11.40;1.15;;;9.00;99.90;;;;;;5082925;28;20048;-66
2022/09/27 02:19:25;;;;;;;6.32;1.00;;;8.90;99.90;;;;;;5071835;28;20059;-66
2022/09/27 02:22:13;;;;;;;5.25;0.95;;;9.00;99.90;;;;;;5080123;28;20036;-65
2022/09/27 02:24:59;;;;;;;9.43;1.00;;;9.00;99.90;;;;;;5085605;28;20048;-66
2022/09/27 02:27:34;;;;;;;6.55;0.65;;;9.00;99.90;;;;;;5087433;28;20046;-66
2022/09/27 02:30:06;;;;;;;9.18;0.77;;;9.00;99.90;;;;;;5062979;28;20127;-66
2022/09/27 02:32:32;;;;;;;3.22;0.55;;;9.30;99.90;;;;;;5083300;28;20043;-66
2022/09/27 02:35:02;;;;;;;4.28;0.65;;;9.30;99.90;;;;;;5085585;28;20040;-66
2022/09/27 02:37:29;;;;;;;3.83;0.60;;;9.00;99.90;;;;;;5084314;28;20067;-65
2022/09/27 02:39:56;;;;;;;19.60;2.25;;;9.30;99.90;;;;;;5086076;28;20040;-66
2022/09/27 02:42:21;;;;;;;5.20;1.00;;;9.20;99.90;;;;;;5083269;28;20032;-66
2022/09/27 02:44:47;;;;;;;4.90;0.75;;;9.00;99.90;;;;;;5085031;28;20082;-66
2022/09/27 02:47:48;;;;;;;5.63;0.65;;;9.00;99.90;;;;;;5085973;28;20127;-67
2022/09/27 02:50:55;;;;;;;5.60;0.82;;;9.20;99.90;;;;;;5075064;28;20115;-67
2022/09/27 02:53:27;;;;;;;8.25;1.10;;;9.20;99.90;;;;;;5081571;28;20055;-66
2022/09/27 02:56:07;;;;;;;2.88;0.65;;;9.20;99.90;;;;;;5089407;28;20040;-66
2022/09/27 02:59:13;;;;;;;4.10;0.75;;;8.90;99.90;;;;;;5082270;28;20123;-65
2022/09/27 03:02:17;;;;;;;5.38;1.00;;;8.90;99.90;;;;;;5078623;28;20072;-66
2022/09/27 03:04:52;;;;;;;5.70;0.90;;;8.90;99.90;;;;;;5084964;28;20044;-66
2022/09/27 03:07:18;;;;;;;6.13;1.30;;;8.90;99.90;;;;;;5081421;28;20384;-66
2022/09/27 03:09:47;;;;;;;5.15;0.77;;;8.90;99.90;;;;;;5084175;28;20047;-66
2022/09/27 03:12:13;;;;;;;3.85;0.85;;;9.10;99.90;;;;;;5084988;28;20043;-66
2022/09/27 03:14:39;;;;;;;4.25;0.90;;;9.00;99.90;;;;;;5085841;28;20071;-66
2022/09/27 03:17:05;;;;;;;3.45;0.77;;;8.90;99.90;;;;;;5085060;28;20078;-66
2022/09/27 03:19:30;;;;;;;6.00;0.77;;;9.10;99.90;;;;;;5080615;28;20072;-67
2022/09/27 03:21:56;;;;;;;9.27;1.00;;;9.00;99.90;;;;;;5082095;28;20048;-66
2022/09/27 03:24:21;;;;;;;4.05;0.70;;;9.00;99.90;;;;;;5079430;28;20043;-66
2022/09/27 03:26:47;;;;;;;3.80;0.75;;;9.00;99.90;;;;;;5082625;28;20032;-66
2022/09/27 03:29:13;;;;;;;3.80;0.80;;;8.70;99.90;;;;;;5085508;28;20115;-66
2022/09/27 03:31:39;;;;;;;3.78;0.73;;;8.60;99.90;;;;;;5080347;28;20045;-66
2022/09/27 03:34:04;;;;;;;4.13;0.60;;;8.80;99.90;;;;;;5082644;28;20032;-66
2022/09/27 03:36:30;;;;;;;1.73;0.52;;;8.60;99.90;;;;;;5084063;28;20483;-66
2022/09/27 03:38:55;;;;;;;4.80;0.90;;;8.60;99.90;;;;;;5077833;28;20041;-66
2022/09/27 03:41:21;;;;;;;1.98;0.60;;;8.60;99.90;;;;;;5079683;28;20086;-66
2022/09/27 03:43:47;;;;;;;9.63;0.82;;;8.40;99.90;;;;;;5082554;28;20040;-67
2022/09/27 03:46:12;;;;;;;7.32;0.82;;;8.40;99.90;;;;;;5081677;28;20032;-66
2022/09/27 03:48:38;;;;;;;5.40;0.60;;;8.40;99.90;;;;;;5080723;28;20094;-66
2022/09/27 03:51:04;;;;;;;3.58;0.50;;;8.40;99.90;;;;;;5078007;28;20056;-66
2022/09/27 03:53:29;;;;;;;5.20;0.63;;;8.50;99.90;;;;;;5079783;28;20048;-66
2022/09/27 03:55:55;;;;;;;2.80;0.60;;;8.30;99.90;;;;;;5085289;28;20037;-67
2022/09/27 03:58:20;;;;;;;4.18;0.40;;;8.30;99.90;;;;;;5079464;28;20045;-66
2022/09/27 04:00:46;;;;;;;5.50;0.80;;;8.50;99.90;;;;;;5086609;28;20085;-66
2022/09/27 04:03:12;;;;;;;4.68;0.55;;;8.20;99.90;;;;;;5082041;28;20055;-66
2022/09/27 04:05:38;;;;;;;5.00;0.52;;;8.30;99.90;;;;;;5086408;28;20063;-66
2022/09/27 04:08:05;;;;;;;3.53;0.55;;;8.10;99.90;;;;;;5086602;28;20036;-66
2022/09/27 04:10:31;;;;;;;3.65;0.50;;;8.10;99.90;;;;;;5086385;28;20616;-66
2022/09/27 04:12:56;;;;;;;2.47;0.60;;;8.20;99.90;;;;;;5089346;28;20044;-66
2022/09/27 04:15:22;;;;;;;4.85;0.50;;;8.00;99.90;;;;;;5086416;28;20051;-66
2022/09/27 04:17:48;;;;;;;3.22;0.73;;;8.00;99.90;;;;;;5079027;28;20040;-66
2022/09/27 04:20:14;;;;;;;4.80;0.70;;;8.00;99.90;;;;;;5083257;28;20036;-66
2022/09/27 04:22:40;;;;;;;10.70;0.80;;;8.20;99.90;;;;;;5081079;28;20036;-66
2022/09/27 04:25:08;;;;;;;3.97;0.55;;;8.30;99.90;;;;;;5081977;28;20036;-67
2022/09/27 04:27:34;;;;;;;4.35;0.70;;;8.10;99.90;;;;;;5080303;28;20131;-67
2022/09/27 04:29:59;;;;;;;2.53;0.60;;;8.10;99.90;;;;;;5090258;28;20545;-66
2022/09/27 04:32:25;;;;;;;3.50;0.70;;;8.40;99.90;;;;;;5090562;28;20421;-67
2022/09/27 04:37:35;;;;;;;1.48;0.60;;;8.20;99.90;;;;;;5082621;28;20048;-66
2022/09/27 04:40:02;;;;;;;3.38;0.70;;;8.30;99.90;;;;;;5089528;28;20907;-66
2022/09/27 04:42:28;;;;;;;4.95;0.73;;;8.40;99.90;;;;;;5062276;28;20077;-65
2022/09/27 04:44:54;;;;;;;3.53;1.05;;;8.50;99.90;;;;;;5085252;28;20048;-66
2022/09/27 04:47:20;;;;;;;4.13;1.10;;;8.30;99.90;;;;;;5088733;28;20051;-65
2022/09/27 04:49:46;;;;;;;4.13;0.70;;;8.50;99.90;;;;;;5082752;28;20032;-66
2022/09/27 04:52:14;;;;;;;3.85;0.70;;;8.50;99.90;;;;;;5083433;28;20049;-65
2022/09/27 04:54:41;;;;;;;7.00;1.13;;;8.60;99.90;;;;;;5084730;28;20074;-66
2022/09/27 04:57:07;;;;;;;4.50;0.70;;;8.60;99.90;;;;;;5078905;28;20040;-65
2022/09/27 04:59:32;;;;;;;7.53;0.85;;;8.40;99.90;;;;;;5082183;28;20044;-66
2022/09/27 05:02:01;;;;;;;6.72;2.65;;;8.60;99.90;;;;;;5086297;28;20028;-66
2022/09/27 05:04:26;;;;;;;6.70;1.40;;;8.40;99.90;;;;;;5087684;28;20502;-66
2022/09/27 05:06:52;;;;;;;6.72;1.27;;;8.40;99.90;;;;;;5084697;28;20074;-66
2022/09/27 05:09:18;;;;;;;4.75;0.85;;;8.40;99.90;;;;;;5084503;28;20036;-66
2022/09/27 05:11:44;;;;;;;6.13;1.13;;;8.60;99.90;;;;;;5087900;28;20055;-66
2022/09/27 05:14:09;;;;;;;7.57;0.80;;;8.60;99.90;;;;;;5088300;28;20028;-65
2022/09/27 05:16:35;;;;;;;6.75;0.80;;;8.60;99.90;;;;;;5084668;28;20116;-65
2022/09/27 05:19:02;;;;;;;4.35;0.70;;;8.60;99.90;;;;;;5084508;28;20031;-66
2022/09/27 05:21:27;;;;;;;4.63;0.50;;;8.40;99.90;;;;;;5080701;28;20112;-66
2022/09/27 05:23:53;;;;;;;5.25;0.75;;;8.50;99.90;;;;;;5081099;28;20479;-66
2022/09/27 05:26:19;;;;;;;5.68;1.00;;;8.60;99.90;;;;;;5089441;28;20399;-66
2022/09/27 05:28:46;;;;;;;6.18;0.68;;;8.60;99.90;;;;;;5086453;28;20044;-66
2022/09/27 05:31:13;;;;;;;3.05;1.00;;;8.50;99.90;;;;;;5089259;28;20032;-65
2022/09/27 05:33:39;;;;;;;5.28;0.93;;;8.40;99.90;;;;;;5087540;28;20112;-66
2022/09/27 05:36:05;;;;;;;5.05;0.70;;;8.40;99.90;;;;;;5089166;28;20503;-66
2022/09/27 05:38:31;;;;;;;4.07;0.90;;;8.50;99.90;;;;;;5071793;28;20097;-66
2022/09/27 05:40:56;;;;;;;4.75;0.65;;;8.40;99.90;;;;;;5088785;28;20032;-66
2022/09/27 05:43:22;;;;;;;3.40;0.68;;;8.60;99.90;;;;;;5084113;28;20039;-66
2022/09/27 05:45:49;;;;;;;3.50;1.00;;;8.50;99.90;;;;;;5078915;28;20040;-66
2022/09/27 05:48:14;;;;;;;3.20;0.80;;;8.30;99.90;;;;;;5079222;28;21035;-66
2022/09/27 05:50:40;;;;;;;6.45;0.63;;;8.60;99.90;;;;;;5087808;28;20079;-65
2022/09/27 05:53:06;;;;;;;2.60;0.52;;;8.60;99.90;;;;;;5084746;28;20036;-66
2022/09/27 05:55:31;;;;;;;4.00;0.60;;;8.30;99.90;;;;;;5088646;28;20040;-66
2022/09/27 05:58:03;;;;;;;4.25;0.60;;;8.30;99.90;;;;;;5085952;28;20040;-65
2022/09/27 06:00:30;;;;;;;5.10;0.80;;;8.30;99.90;;;;;;5083692;28;20040;-66
2022/09/27 06:02:57;;;;;;;1.95;0.60;;;8.40;99.90;;;;;;5084683;28;20032;-66
2022/09/27 06:05:24;;;;;;;4.45;0.60;;;8.50;99.90;;;;;;5089248;28;20047;-66
2022/09/27 06:07:50;;;;;;;3.63;0.80;;;8.50;99.90;;;;;;5086056;28;20675;-66
2022/09/27 06:10:18;;;;;;;6.20;0.95;;;8.30;99.90;;;;;;5083781;28;20047;-66
2022/09/27 06:12:44;;;;;;;4.18;0.82;;;8.30;99.90;;;;;;5080597;28;20043;-66
2022/09/27 06:15:09;;;;;;;5.93;0.90;;;8.30;99.90;;;;;;5084536;28;20101;-66
2022/09/27 06:17:36;;;;;;;3.67;0.82;;;8.60;99.90;;;;;;5073446;28;20048;-66
2022/09/27 06:20:02;;;;;;;4.45;0.90;;;8.60;99.90;;;;;;5079487;28;20036;-66
2022/09/27 06:22:27;;;;;;;3.67;1.02;;;8.50;99.90;;;;;;5077738;28;20028;-66
2022/09/27 06:24:53;;;;;;;6.22;1.20;;;8.50;99.90;;;;;;5079055;28;20044;-66
2022/09/27 06:27:19;;;;;;;2.92;0.93;;;8.50;99.90;;;;;;5079557;28;20040;-66
2022/09/27 06:29:45;;;;;;;2.58;0.80;;;8.70;99.90;;;;;;5076886;28;20040;-66
2022/09/27 06:32:10;;;;;;;3.45;0.70;;;8.40;99.90;;;;;;5083526;28;20498;-66
2022/09/27 06:34:36;;;;;;;3.17;0.80;;;8.40;99.90;;;;;;5085659;28;20722;-66
2022/09/27 06:37:01;;;;;;;3.17;1.02;;;8.60;99.90;;;;;;5086890;28;20049;-66
2022/09/27 06:39:27;;;;;;;3.40;0.70;;;8.50;99.90;;;;;;5076323;28;20039;-66
2022/09/27 06:41:56;;;;;;;1.63;0.70;;;8.50;99.90;;;;;;5079264;28;20082;-66
2022/09/27 06:44:23;;;;;;;2.50;0.73;;;8.60;99.90;;;;;;5080160;28;20089;-66
2022/09/27 06:46:53;;;;;;;3.25;0.70;;;8.50;99.90;;;;;;5077794;28;20781;-67
2022/09/27 06:49:21;;;;;;;7.00;0.98;;;8.60;99.90;;;;;;5073754;28;20044;-66
2022/09/27 06:51:47;;;;;;;4.35;0.88;;;8.90;99.90;;;;;;5081301;28;20443;-67
2022/09/27 06:54:13;;;;;;;5.20;1.00;;;8.80;99.90;;;;;;5074916;28;20035;-66
2022/09/27 06:56:39;;;;;;;4.60;0.75;;;8.90;99.90;;;;;;5075079;28;20113;-66
2022/09/27 07:01:51;;;;;;;6.07;1.15;;;9.00;99.90;;;;;;5083758;28;20043;-66
2022/09/27 07:04:17;;;;;;;6.80;1.10;;;8.80;99.90;;;;;;5080589;28;20083;-67
2022/09/27 07:06:43;;;;;;;2.30;0.82;;;9.00;99.90;;;;;;5084041;28;20036;-67
2022/09/27 07:09:09;;;;;;;9.05;1.20;;;8.90;99.90;;;;;;5082481;28;20032;-66
2022/09/27 07:11:39;;;;;;;5.32;1.30;;;9.10;99.90;;;;;;5076559;28;20089;-67
2022/09/27 07:14:05;;;;;;;2.97;0.90;;;9.00;99.90;;;;;;5078123;28;20100;-66
2022/09/27 07:16:33;;;;;;;5.35;0.90;;;9.10;99.90;;;;;;5081658;28;20052;-66
2022/09/27 07:18:59;;;;;;;2.00;0.80;;;9.20;99.90;;;;;;5080012;28;20051;-66
2022/09/27 07:21:25;;;;;;;2.83;0.90;;;9.30;99.90;;;;;;5078758;28;20031;-66
2022/09/27 07:23:51;;;;;;;5.53;1.13;;;9.30;99.90;;;;;;5083288;28;20081;-67
2022/09/27 07:26:16;;;;;;;6.13;1.00;;;9.30;99.90;;;;;;5087532;28;20059;-67
2022/09/27 07:28:42;;;;;;;4.88;1.08;;;9.40;99.90;;;;;;5085882;28;20051;-67
2022/09/27 07:31:08;;;;;;;5.25;0.80;;;9.70;99.90;;;;;;5084236;28;20040;-66
2022/09/27 07:33:34;;;;;;;2.95;0.80;;;9.60;99.90;;;;;;5086811;28;20425;-66
2022/09/27 07:36:04;;;;;;;4.70;1.00;;;9.80;99.90;;;;;;5086206;28;20047;-67
2022/09/27 07:38:31;;;;;;;4.20;0.77;;;9.70;99.90;;;;;;5083261;28;20044;-67
2022/09/27 07:40:57;;;;;;;2.38;0.60;;;9.70;99.90;;;;;;5086732;28;20090;-67
2022/09/27 07:43:22;;;;;;;4.95;0.70;;;9.60;99.90;;;;;;5085910;28;20044;-66
2022/09/27 07:45:48;;;;;;;2.90;0.77;;;9.70;99.90;;;;;;5084108;28;20044;-67
2022/09/27 07:48:15;;;;;;;5.55;0.98;;;9.80;99.90;;;;;;5078383;28;20040;-67
2022/09/27 07:50:41;;;;;;;4.30;0.60;;;10.20;99.90;;;;;;5088836;28;20525;-68
2022/09/27 07:53:06;;;;;;;8.95;1.73;;;10.20;99.90;;;;;;5085189;28;20044;-67
2022/09/27 07:55:32;;;;;;;2.85;0.85;;;10.50;99.90;;;;;;5090787;28;20066;-68
2022/09/27 07:58:03;;;;;;;5.65;0.90;;;10.40;99.90;;;;;;5081181;28;20051;-65
2022/09/27 08:00:29;;;;;;;3.45;0.75;;;10.40;99.90;;;;;;5082586;28;20032;-66
2022/09/27 08:02:54;;;;;;;2.72;0.90;;;10.30;99.90;;;;;;5084680;28;20055;-67
2022/09/27 08:05:20;;;;;;;6.40;0.82;;;10.10;99.90;;;;;;5086275;28;20085;-66
2022/09/27 08:07:46;;;;;;;2.97;0.80;;;10.10;99.90;;;;;;5084218;28;20391;-66
2022/09/27 08:10:11;;;;;;;3.70;0.65;;;10.00;99.90;;;;;;5089913;28;20044;-66
2022/09/27 08:12:37;;;;;;;3.13;0.68;;;10.10;99.90;;;;;;5087773;28;20047;-66
2022/09/27 08:15:04;;;;;;;6.65;0.90;;;10.00;99.90;;;;;;5088021;28;20036;-66
2022/09/27 08:17:31;;;;;;;2.47;0.73;;;10.20;99.90;;;;;;5084398;28;20036;-66
2022/09/27 08:19:57;;;;;;;6.18;0.90;;;10.30;99.90;;;;;;5085030;28;20470;-66
2022/09/27 08:22:23;;;;;;;2.42;0.75;;;10.50;99.90;;;;;;5086251;28;20110;-66
2022/09/27 08:24:48;;;;;;;1.75;0.90;;;10.60;99.90;;;;;;5079342;28;20252;-66
2022/09/27 08:27:15;;;;;;;3.22;0.90;;;10.60;99.90;;;;;;5083903;28;20535;-66
2022/09/27 08:29:40;;;;;;;1.58;0.60;;;10.70;99.90;;;;;;5083425;28;20630;-67
2022/09/27 08:32:10;;;;;;;4.68;1.10;;;10.80;99.90;;;;;;5086360;28;20082;-67
2022/09/27 08:34:36;;;;;;;4.30;0.85;;;10.80;99.90;;;;;;5087944;28;20040;-66
2022/09/27 08:37:02;;;;;;;5.03;0.90;;;10.70;99.90;;;;;;5083761;28;20604;-66
2022/09/27 08:39:28;;;;;;;5.13;1.08;;;10.70;99.90;;;;;;5088012;28;20065;-66
2022/09/27 08:42:45;;;;;;;2.42;0.90;;;10.70;99.90;;;;;;5087610;28;20071;-67
2022/09/27 08:45:36;;;;;;;2.65;0.60;;;11.00;99.90;;;;;;5020115;28;20180;-67
2022/09/27 08:48:03;;;;;;;1.63;0.60;;;11.30;99.90;;;;;;5012908;28;20084;-66
2022/09/27 08:50:35;;;;;;;2.78;0.63;;;11.60;99.90;;;;;;5044443;28;20058;-66
2022/09/27 08:53:12;;;;;;;3.08;0.80;;;11.70;99.90;;;;;;5080972;28;20082;-66
2022/09/27 08:55:43;;;;;;;4.30;0.68;;;12.00;99.90;;;;;;5091615;28;20130;-68
2022/09/27 08:58:35;;;;;;;1.13;0.50;;;11.80;99.90;;;;;;5079709;28;20032;-67
2022/09/27 09:01:11;;;;;;;2.20;0.50;;;11.80;99.90;;;;;;5082093;28;20048;-66
2022/09/27 09:03:47;;;;;;;2.42;0.63;;;11.90;99.90;;;;;;5086553;28;20460;-66
2022/09/27 09:06:37;;;;;;;3.28;0.40;;;11.70;99.90;;;;;;5092038;28;20044;-66
2022/09/27 09:09:14;;;;;;;1.40;0.50;;;11.60;99.90;;;;;;5083895;28;20098;-66
2022/09/27 09:14:49;;;;;;;6.50;0.73;;;11.50;99.90;;;;;;5087618;28;20074;-66
2022/09/27 09:17:46;;;;;;;4.20;0.52;;;11.60;99.90;;;;;;5088135;28;20036;-66
2022/09/27 09:20:32;;;;;;;2.35;0.60;;;11.90;99.90;;;;;;5079858;28;20039;-66
2022/09/27 09:23:16;;;;;;;0.60;0.32;;;12.10;99.90;;;;;;5074613;28;20636;-66
2022/09/27 09:25:59;;;;;;;0.68;0.50;;;12.20;99.90;;;;;;5085813;28;20036;-65
2022/09/27 09:28:50;;;;;;;3.60;0.40;;;12.30;99.90;;;;;;5089529;28;20036;-66
2022/09/27 09:31:24;;;;;;;3.13;0.47;;;12.20;99.90;;;;;;5085993;28;20114;-65
2022/09/27 09:34:14;;;;;;;2.50;0.30;;;12.20;99.90;;;;;;5089385;28;20039;-65
2022/09/27 09:36:49;;;;;;;1.48;0.40;;;11.90;99.90;;;;;;5093526;28;20368;-66
2022/09/27 09:39:27;;;;;;;1.13;0.40;;;11.70;99.90;;;;;;5087192;28;20464;-66
2022/09/27 09:42:06;;;;;;;3.72;0.55;;;11.90;99.90;;;;;;5092103;28;20040;-65
2022/09/27 09:44:41;;;;;;;1.88;0.30;;;11.80;99.90;;;;;;5080623;28;20028;-66
2022/09/27 09:47:25;;;;;;;3.28;0.43;;;11.90;99.90;;;;;;5079054;28;20071;-66
2022/09/27 09:49:56;;;;;;;1.23;0.40;;;11.90;99.90;;;;;;5085938;28;20385;-65
2022/09/27 09:52:23;;;;;;;;;;;11.80;99.90;;;;;;5086964;28;20044;-65
2022/09/27 09:55:05;;;;;;;1.75;0.28;;;11.80;99.90;;;;;;5087052;28;19920;-66
2022/09/27 09:58:01;;;;;;;3.38;0.80;;;11.90;99.90;;;;;;5090323;28;20182;-66
2022/09/27 10:00:26;;;;;;;2.25;0.38;;;11.90;99.90;;;;;;5066485;28;20055;-66
2022/09/27 10:02:58;;;;;;;4.00;0.50;;;12.00;99.90;;;;;;5086565;28;20368;-66
2022/09/27 10:05:25;;;;;;;3.22;0.30;;;12.10;99.90;;;;;;5088123;28;20044;-65
2022/09/27 10:07:56;;;;;;;2.92;0.47;;;12.00;99.90;;;;;;5087587;28;20050;-66
2022/09/27 10:10:22;;;;;;;;;;;12.20;99.90;;;;;;5072217;28;20040;-66
2022/09/27 10:12:48;;;;;;;1.50;0.38;;;12.20;99.90;;;;;;5087356;28;19943;-66
2022/09/27 10:15:20;;;;;;;4.22;0.60;;;12.30;99.90;;;;;;5091608;28;20028;-66
2022/09/27 10:17:49;;;;;;;1.48;0.40;;;12.30;99.90;;;;;;5090192;28;20047;-66
2022/09/27 10:20:45;;;;;;;2.08;0.50;;;12.30;99.90;;;;;;5086474;28;20089;-66
2022/09/27 10:23:20;;;;;;;2.45;0.63;;;12.30;99.90;;;;;;5086368;28;20078;-66
2022/09/27 10:25:55;;;;;;;3.22;0.68;;;12.20;99.90;;;;;;5079351;28;20044;-66
2022/09/27 10:28:37;;;;;;;1.65;0.55;;;12.30;99.90;;;;;;5083810;28;20093;-66
2022/09/27 10:31:10;;;;;;;1.33;0.50;;;12.20;99.90;;;;;;5089204;28;20040;-65
2022/09/27 10:33:53;;;;;;;2.63;0.75;;;12.10;99.90;;;;;;5085613;28;20048;-66
2022/09/27 10:36:25;;;;;;;1.70;0.30;;;11.90;99.90;;;;;;5090817;28;20040;-66
2022/09/27 10:38:54;;;;;;;2.65;0.13;;;11.50;99.90;;;;;;5087005;28;20040;-65
2022/09/27 10:41:32;;;;;;;1.05;0.10;;;11.30;99.90;;;;;;5088465;28;20039;-64
2022/09/27 10:44:25;;;;;;;0.38;0.10;;;11.10;99.90;;;;;;5080332;28;20041;-66
2022/09/27 10:46:54;;;;;;;0.45;0.03;;;10.90;99.90;;;;;;5085800;28;20042;-66
2022/09/27 10:49:28;;;;;;;1.85;0.20;;;10.70;99.90;;;;;;5085480;28;20040;-67
2022/09/27 10:52:05;;;;;;;0.38;0.10;;;10.60;99.90;;;;;;5088801;28;20044;-66
2022/09/27 10:54:36;;;;;;;1.73;0.15;;;10.40;99.90;;;;;;5090840;28;20048;-67
2022/09/27 10:57:19;;;;;;;5.25;0.73;;;10.40;99.90;;;;;;5083440;28;20040;-67
2022/09/27 10:59:59;;;;;;;5.60;0.30;;;10.30;99.90;;;;;;5087374;28;20416;-67
2022/09/27 11:02:34;;;;;;;1.03;0.30;;;10.30;99.90;;;;;;5088695;28;20032;-66
2022/09/27 11:05:28;;;;;;;2.10;0.40;;;10.20;99.90;;;;;;5087296;28;20056;-65
2022/09/27 11:07:58;;;;;;;1.67;0.30;;;10.20;99.90;;;;;;5085227;28;20052;-66
2022/09/27 11:10:32;;;;;;;1.35;0.10;;;10.00;99.90;;;;;;5079469;28;20472;-65
2022/09/27 11:13:13;;;;;;;0.75;0.10;;;10.00;99.90;;;;;;5087041;28;20390;-65
2022/09/27 11:15:47;;;;;;;;;;;10.20;99.90;;;;;;5086798;28;20051;-64
2022/09/27 11:18:54;;;;;;;4.03;0.20;;;10.30;99.90;;;;;;5084284;28;20011;-65
2022/09/27 11:21:44;;;;;;;1.15;0.20;;;10.40;99.90;;;;;;5075505;28;20135;-65
2022/09/27 11:24:24;;;;;;;2.05;0.30;;;10.70;99.90;;;;;;5087920;28;20068;-65
2022/09/27 11:27:17;;;;;;;0.70;0.22;;;10.90;99.90;;;;;;5081160;28;20044;-64
2022/09/27 11:29:58;;;;;;;1.40;0.20;;;10.90;99.90;;;;;;5089335;28;20036;-64
2022/09/27 11:32:35;;;;;;;;;;;10.80;99.90;;;;;;5070113;28;20086;-64
2022/09/27 11:35:25;;;;;;;1.10;0.30;;;10.60;99.90;;;;;;5081713;28;19922;-65
2022/09/27 11:38:17;;;;;;;4.60;0.13;;;10.70;99.90;;;;;;5090959;28;20833;-64
2022/09/27 11:40:54;;;;;;;4.90;0.40;;;10.60;99.90;;;;;;5082561;28;20047;-65
2022/09/27 11:43:43;;;;;;;3.03;0.40;;;10.60;99.90;;;;;;5084200;28;20047;-65
2022/09/27 11:46:18;;;;;;;3.55;0.45;;;10.30;99.90;;;;;;5080860;28;20048;-65
2022/09/27 11:49:21;;;;;;;2.20;0.25;;;10.30;99.90;;;;;;5090449;28;20040;-66
2022/09/27 11:52:18;;;;;;;1.55;0.25;;;10.50;99.90;;;;;;5086052;28;20043;-66
2022/09/27 11:55:08;;;;;;;5.78;0.60;;;10.40;99.90;;;;;;5087377;28;20055;-65
2022/09/27 11:57:40;;;;;;;0.70;0.30;;;10.50;99.90;;;;;;5073441;28;20048;-67
2022/09/27 12:00:17;;;;;;;1.40;0.32;;;10.70;99.90;;;;;;5090211;28;20032;-66
2022/09/27 12:03:10;;;;;;;1.58;0.20;;;11.00;99.90;;;;;;5086998;28;20052;-66
2022/09/27 12:06:07;;;;;;;0.50;0.30;;;11.00;99.90;;;;;;5088732;28;20067;-66
2022/09/27 12:08:42;;;;;;;0.55;0.20;;;11.30;99.90;;;;;;5086721;28;20549;-66
2022/09/27 12:11:38;;;;;;;0.32;0.20;;;11.30;99.90;;;;;;5088704;28;20125;-66
2022/09/27 12:14:20;;;;;;;0.95;0.20;;;11.40;99.90;;;;;;5079906;28;20098;-65
2022/09/27 12:16:49;;;;;;;2.33;0.20;;;11.50;99.90;;;;;;5088987;28;20044;-66
2022/09/27 12:19:20;;;;;;;0.82;0.20;;;11.30;99.90;;;;;;5070226;28;20142;-66
2022/09/27 12:21:47;;;;;;;0.68;0.10;;;11.40;99.90;;;;;;5072653;28;20043;-67
2022/09/27 12:24:21;;;;;;;1.33;0.15;;;11.10;99.90;;;;;;5077431;28;20041;-66
2022/09/27 12:26:52;;;;;;;0.80;0.20;;;11.10;99.90;;;;;;5090857;28;20126;-67
2022/09/27 12:29:30;;;;;;;1.65;0.52;;;11.20;99.90;;;;;;5093041;28;20147;-66
2022/09/27 12:32:21;;;;;;;0.65;0.20;;;11.20;99.90;;;;;;5092135;28;20606;-65
2022/09/27 12:35:14;;;;;;;0.75;0.30;;;11.00;99.90;;;;;;5091482;28;20471;-67
2022/09/27 12:37:51;;;;;;;1.55;0.28;;;11.00;99.90;;;;;;5091450;28;20399;-66
2022/09/27 12:40:28;;;;;;;0.20;0.10;;;11.10;99.90;;;;;;5089930;28;20113;-67
2022/09/27 12:43:19;;;;;;;0.50;0.20;;;11.40;99.90;;;;;;5091676;28;20039;-65
2022/09/27 12:46:05;;;;;;;1.55;0.30;;;11.50;99.90;;;;;;5086182;28;20047;-66
2022/09/27 12:48:45;;;;;;;2.00;0.40;;;11.40;99.90;;;;;;5089635;28;20060;-66
2022/09/27 12:51:14;;;;;;;1.08;0.30;;;11.40;99.90;;;;;;5093285;28;20044;-66
2022/09/27 12:54:08;;;;;;;1.23;0.43;;;11.30;99.90;;;;;;5079881;28;20051;-66
2022/09/27 12:56:50;;;;;;;1.30;0.40;;;11.30;99.90;;;;;;5093567;28;20044;-66
2022/09/27 12:59:34;;;;;;;0.63;0.30;;;11.20;99.90;;;;;;5092684;28;20409;-66
2022/09/27 13:02:03;;;;;;;1.38;0.30;;;11.20;99.90;;;;;;5091573;28;20044;-66
2022/09/27 13:04:50;;;;;;;2.03;0.65;;;11.00;99.90;;;;;;5091697;28;20063;-67
2022/09/27 13:07:46;;;;;;;1.60;0.35;;;11.20;99.90;;;;;;5093484;28;20487;-67
2022/09/27 13:10:33;;;;;;;4.82;0.50;;;11.20;99.90;;;;;;5091855;28;20051;-67
2022/09/27 13:13:00;;;;;;;1.80;0.38;;;11.20;99.90;;;;;;5072606;28;20036;-67
2022/09/27 13:15:32;;;;;;;2.90;0.30;;;11.00;99.90;;;;;;5074348;28;20487;-66
2022/09/27 13:18:00;;;;;;;1.73;0.43;;;11.00;99.90;;;;;;5073690;28;20062;-66
2022/09/27 13:20:35;;;;;;;2.70;0.40;;;10.90;99.90;;;;;;5091774;28;20379;-67
2022/09/27 13:23:46;;;;;;;2.78;0.40;;;10.80;99.90;;;;;;5078569;28;20040;-66
2022/09/27 13:26:31;;;;;;;1.13;0.32;;;10.70;99.90;;;;;;5091406;28;20119;-66
2022/09/27 13:29:00;;;;;;;2.58;0.43;;;10.70;99.90;;;;;;5084624;28;20135;-67
2022/09/27 13:31:54;;;;;;;2.80;0.60;;;10.60;99.90;;;;;;5092810;28;20032;-66